Time;durP1;ratioP1;P1;durP2;ratioP2;P2;SDS_P1;SDS_P2;PMS_P1;PMS_P2;Temp;Humidity;BMP_temperature;BMP_pressure;BME280_temperature;BME280_humidity;BME280_pressure;Samples;Min_cycle;Max_cycle;Signal;HPM_P1;HPM_P2
2021/09/12 10:28:30;;;;;;;11.52;9.02;;;21.20;99.90;;;;;;4984865;23;20047;-79
2021/09/12 10:30:55;;;;;;;15.43;10.15;;;21.20;99.90;;;;;;4933726;29;20028;-78
2021/09/12 10:33:22;;;;;;;12.60;10.13;;;21.30;99.90;;;;;;4934137;29;20011;-77
2021/09/12 10:35:58;;;;;;;14.05;9.65;;;21.20;99.90;;;;;;4933844;29;20047;-80
2021/09/12 10:38:39;;;;;;;18.20;9.27;;;21.00;99.90;;;;;;4916458;29;20024;-79
2021/09/12 10:41:04;;;;;;;14.90;11.67;;;20.90;99.90;;;;;;4923125;29;20031;-78
2021/09/12 10:43:30;;;;;;;13.90;10.88;;;20.90;99.90;;;;;;4929548;29;20035;-83
2021/09/12 10:46:01;;;;;;;13.93;11.07;;;20.90;99.90;;;;;;4928759;29;20074;-81
2021/09/12 10:48:29;;;;;;;15.50;11.23;;;20.90;99.90;;;;;;4928819;29;20488;-79
2021/09/12 10:50:55;;;;;;;15.95;11.43;;;20.90;99.90;;;;;;4938675;29;20047;-83
2021/09/12 10:53:46;;;;;;;14.20;10.13;;;21.00;99.90;;;;;;4922838;29;20119;-81
2021/09/12 10:56:13;;;;;;;13.05;10.13;;;21.10;99.90;;;;;;4921222;29;20122;-77
2021/09/12 10:58:39;;;;;;;17.25;11.18;;;21.20;99.90;;;;;;4928612;29;20487;-82
2021/09/12 11:01:06;;;;;;;19.70;13.02;;;21.30;99.90;;;;;;4928370;29;20028;-80
2021/09/12 11:03:34;;;;;;;16.15;12.05;;;21.20;99.90;;;;;;4916959;29;20032;-84
2021/09/12 11:06:00;;;;;;;14.57;11.40;;;21.20;99.90;;;;;;4915785;29;20020;-84
2021/09/12 11:08:37;;;;;;;17.52;12.85;;;21.20;99.90;;;;;;4915994;29;20086;-83
2021/09/12 11:11:04;;;;;;;14.38;12.60;;;21.30;99.90;;;;;;4914955;29;20023;-84
2021/09/12 11:13:31;;;;;;;15.50;12.13;;;21.40;99.90;;;;;;4917342;29;20073;-84
2021/09/12 11:16:06;;;;;;;15.18;12.88;;;21.60;99.90;;;;;;4916762;29;20039;-83
2021/09/12 11:18:47;;;;;;;16.70;12.77;;;21.70;99.90;;;;;;4915294;29;20032;-84
2021/09/12 11:21:33;;;;;;;18.40;14.55;;;21.90;99.90;;;;;;4915744;29;20035;-84
2021/09/12 11:24:09;;;;;;;17.70;13.60;;;21.80;99.90;;;;;;4915855;29;20036;-84
2021/09/12 11:26:40;;;;;;;17.20;13.38;;;21.90;99.90;;;;;;4917228;29;20035;-83
2021/09/12 11:29:15;;;;;;;20.55;15.45;;;22.00;99.90;;;;;;4916639;29;20056;-83
2021/09/12 11:31:44;;;;;;;19.83;14.90;;;22.00;99.90;;;;;;4916138;29;20035;-80
2021/09/12 11:34:10;;;;;;;20.20;15.40;;;22.00;99.90;;;;;;4915562;29;20123;-84
2021/09/12 11:36:47;;;;;;;20.15;14.90;;;21.80;99.90;;;;;;4917005;29;20123;-83
2021/09/12 11:39:15;;;;;;;21.83;15.40;;;21.70;99.90;;;;;;4916248;29;20108;-83
2021/09/12 11:41:43;;;;;;;15.45;13.80;;;21.80;99.90;;;;;;4915463;29;20032;-83
2021/09/12 11:44:09;;;;;;;16.63;14.00;;;21.90;99.90;;;;;;4916427;29;20024;-84
2021/09/12 11:46:35;;;;;;;18.58;14.05;;;22.00;99.90;;;;;;4915130;29;20039;-84
2021/09/12 11:49:04;;;;;;;17.73;14.55;;;21.90;99.90;;;;;;4916311;29;20058;-84
2021/09/12 11:51:35;;;;;;;18.70;14.27;;;22.00;99.90;;;;;;4914950;29;20031;-83
2021/09/12 11:54:10;;;;;;;;;;;22.00;99.90;;;;;;4915186;29;20066;-83
2021/09/12 11:56:37;;;;;;;20.85;14.07;;;22.00;99.90;;;;;;4915447;29;20279;-83
2021/09/12 11:59:04;;;;;;;19.85;13.27;;;21.90;99.90;;;;;;4913930;29;20024;-84
2021/09/12 12:01:30;;;;;;;21.00;15.02;;;21.90;99.90;;;;;;4915536;29;20034;-84
2021/09/12 12:03:57;;;;;;;20.45;14.40;;;21.90;99.90;;;;;;4914510;29;20020;-83
2021/09/12 12:06:23;;;;;;;19.00;15.38;;;21.80;99.90;;;;;;4914424;29;20544;-84
2021/09/12 12:09:07;;;;;;;19.50;15.27;;;21.60;99.90;;;;;;4914759;29;20032;-84
2021/09/12 12:11:35;;;;;;;23.35;17.13;;;21.50;99.90;;;;;;4914995;29;20028;-84
2021/09/12 12:14:02;;;;;;;20.00;14.43;;;21.30;99.90;;;;;;4913864;29;20059;-83
2021/09/12 12:16:28;;;;;;;20.10;16.30;;;21.30;99.90;;;;;;4914888;29;20020;-85
2021/09/12 12:19:01;;;;;;;20.33;15.32;;;21.40;99.90;;;;;;4914516;29;20020;-81
2021/09/12 12:21:31;;;;;;;17.00;14.50;;;21.50;99.90;;;;;;4916110;29;20028;-83
2021/09/12 12:23:57;;;;;;;16.92;15.23;;;21.60;99.90;;;;;;4914285;29;20564;-83
2021/09/12 12:26:23;;;;;;;17.55;15.25;;;21.60;99.90;;;;;;4915000;29;20115;-84
2021/09/12 12:28:57;;;;;;;19.95;16.65;;;21.70;99.90;;;;;;4913350;29;20087;-83
2021/09/12 12:31:22;;;;;;;24.83;16.23;;;21.80;99.90;;;;;;4914762;29;20115;-83
2021/09/12 12:33:48;;;;;;;17.85;16.05;;;22.00;99.90;;;;;;4913983;29;20459;-81
2021/09/12 12:36:17;;;;;;;19.15;15.82;;;22.00;99.90;;;;;;4914477;29;20119;-83
2021/09/12 12:38:43;;;;;;;20.63;17.88;;;22.10;99.90;;;;;;4914090;29;20040;-84
2021/09/12 12:41:11;;;;;;;20.63;15.88;;;22.20;99.90;;;;;;4913594;29;20028;-83
2021/09/12 12:43:38;;;;;;;18.23;15.95;;;22.30;99.90;;;;;;4914077;29;20036;-81
2021/09/12 12:46:04;;;;;;;23.42;17.42;;;22.30;99.90;;;;;;4914060;29;20040;-83
2021/09/12 12:48:31;;;;;;;19.85;15.85;;;22.30;99.90;;;;;;4915023;29;20111;-83
2021/09/12 12:51:07;;;;;;;20.17;15.68;;;22.30;99.90;;;;;;4914046;29;20020;-84
2021/09/12 12:53:40;;;;;;;19.75;16.40;;;22.40;99.90;;;;;;4916900;29;20467;-79
2021/09/12 12:56:08;;;;;;;21.25;16.02;;;22.50;99.90;;;;;;4929046;29;20043;-78
2021/09/12 12:58:34;;;;;;;17.92;14.93;;;22.30;99.90;;;;;;4924804;29;20020;-78
2021/09/12 13:01:02;;;;;;;19.73;15.23;;;22.10;99.90;;;;;;4920559;29;20047;-75
2021/09/12 13:03:30;;;;;;;18.85;15.23;;;22.00;99.90;;;;;;4942530;29;20028;-76
2021/09/12 13:06:00;;;;;;;22.20;17.90;;;21.90;99.90;;;;;;4909554;29;20043;-76
2021/09/12 13:08:27;;;;;;;17.52;14.95;;;21.80;99.90;;;;;;4911162;29;20116;-79
2021/09/12 13:10:53;;;;;;;17.55;14.05;;;21.80;99.90;;;;;;4909451;29;20131;-76
2021/09/12 13:13:19;;;;;;;15.57;13.85;;;21.90;99.90;;;;;;4924873;29;20115;-73
2021/09/12 13:15:46;;;;;;;19.23;14.07;;;22.00;99.90;;;;;;4909623;29;20064;-74
2021/09/12 13:18:12;;;;;;;16.23;12.55;;;22.10;99.90;;;;;;4909814;29;20024;-75
2021/09/12 13:20:38;;;;;;;15.07;13.35;;;22.20;99.90;;;;;;4910635;29;20028;-80
2021/09/12 13:23:05;;;;;;;15.60;13.27;;;22.20;99.90;;;;;;4908970;29;20393;-75
2021/09/12 13:25:31;;;;;;;15.57;12.98;;;22.20;99.90;;;;;;4912545;29;20036;-76
2021/09/12 13:27:57;;;;;;;17.33;14.13;;;22.40;99.90;;;;;;4920045;29;20056;-75
2021/09/12 13:30:24;;;;;;;17.05;13.90;;;22.40;99.90;;;;;;4913105;29;20070;-78
2021/09/12 13:32:50;;;;;;;14.30;12.80;;;22.40;99.90;;;;;;4911389;29;20432;-77
2021/09/12 13:35:16;;;;;;;14.10;12.65;;;22.60;99.90;;;;;;4914373;29;20033;-76
2021/09/12 13:37:43;;;;;;;13.43;11.80;;;22.80;99.90;;;;;;4910869;29;20431;-74
2021/09/12 13:40:11;;;;;;;13.80;12.23;;;22.90;99.90;;;;;;4923873;29;20412;-74
2021/09/12 13:42:37;;;;;;;13.35;11.18;;;23.00;99.90;;;;;;4929377;29;20028;-76
2021/09/12 13:45:04;;;;;;;15.13;12.10;;;22.90;99.90;;;;;;4928396;29;20123;-75
2021/09/12 13:47:30;;;;;;;14.27;11.38;;;22.90;99.90;;;;;;4929234;29;20035;-75
2021/09/12 13:49:55;;;;;;;11.70;10.50;;;23.00;99.90;;;;;;4911639;29;20032;-74
2021/09/12 13:52:21;;;;;;;15.23;12.43;;;23.00;99.90;;;;;;4911841;29;20142;-75
2021/09/12 13:54:47;;;;;;;14.65;10.77;;;23.00;99.90;;;;;;4925290;29;20067;-74
2021/09/12 13:57:12;;;;;;;15.88;12.77;;;23.10;99.90;;;;;;4924520;29;20028;-75
2021/09/12 13:59:38;;;;;;;19.73;15.43;;;23.10;99.90;;;;;;4926074;29;20127;-76
2021/09/12 14:02:04;;;;;;;15.40;12.82;;;23.10;99.90;;;;;;4913898;29;20473;-75
2021/09/12 14:04:29;;;;;;;18.13;13.88;;;23.00;99.90;;;;;;4932780;29;20028;-75
2021/09/12 14:06:55;;;;;;;15.25;13.30;;;22.90;99.90;;;;;;4932867;29;20028;-76
2021/09/12 14:09:21;;;;;;;18.15;13.80;;;22.70;99.90;;;;;;4934058;29;20362;-70
2021/09/12 14:11:46;;;;;;;15.43;12.32;;;22.60;99.90;;;;;;4927546;29;20040;-71
2021/09/12 14:14:12;;;;;;;17.00;13.05;;;22.50;99.90;;;;;;4924637;29;20374;-74
2021/09/12 14:16:38;;;;;;;17.33;14.75;;;22.40;99.90;;;;;;4914965;29;20035;-73
2021/09/12 14:19:04;;;;;;;15.18;13.52;;;22.40;99.90;;;;;;4914380;29;20476;-74
2021/09/12 14:21:29;;;;;;;15.63;11.90;;;22.40;99.90;;;;;;4914110;29;20071;-72
2021/09/12 14:23:55;;;;;;;16.75;13.13;;;22.60;99.90;;;;;;4913115;29;20036;-71
2021/09/12 14:26:20;;;;;;;15.63;12.52;;;22.70;99.90;;;;;;4913665;29;20032;-71
2021/09/12 14:28:46;;;;;;;14.20;12.00;;;22.90;99.90;;;;;;4921047;29;20056;-71
2021/09/12 14:31:16;;;;;;;16.45;12.98;;;23.10;99.90;;;;;;4933482;29;20049;-71
2021/09/12 14:33:41;;;;;;;20.80;14.02;;;23.30;99.90;;;;;;4933111;29;20066;-71
2021/09/12 14:36:08;;;;;;;18.63;15.25;;;23.30;99.90;;;;;;4929986;29;20063;-70
2021/09/12 14:38:34;;;;;;;17.27;13.57;;;23.30;99.90;;;;;;4932983;29;20024;-71
2021/09/12 14:41:00;;;;;;;16.80;13.68;;;23.10;99.90;;;;;;4932589;29;20502;-75
2021/09/12 14:43:27;;;;;;;21.75;15.20;;;23.00;99.90;;;;;;4931266;29;20531;-72
2021/09/12 14:45:52;;;;;;;18.63;15.18;;;22.80;99.90;;;;;;4930859;29;20058;-72
2021/09/12 14:48:18;;;;;;;18.33;14.20;;;22.70;99.90;;;;;;4926078;29;20051;-72
2021/09/12 14:50:44;;;;;;;18.00;15.20;;;22.70;99.90;;;;;;4912340;29;20059;-74
2021/09/12 14:53:10;;;;;;;15.63;13.20;;;22.70;99.90;;;;;;4913844;29;20036;-71
2021/09/12 14:55:36;;;;;;;17.50;13.75;;;22.70;99.90;;;;;;4912462;29;20039;-71
2021/09/12 14:58:01;;;;;;;19.88;13.77;;;22.70;99.90;;;;;;4913775;29;20476;-73
2021/09/12 15:00:27;;;;;;;19.23;13.18;;;22.70;99.90;;;;;;4927597;29;20114;-72
2021/09/12 15:02:53;;;;;;;14.25;12.63;;;22.70;99.90;;;;;;4911601;29;20024;-72
2021/09/12 15:05:19;;;;;;;18.25;13.13;;;22.80;99.90;;;;;;4912149;29;20148;-71
2021/09/12 15:07:45;;;;;;;15.95;12.52;;;22.90;99.90;;;;;;4913318;29;20114;-71
2021/09/12 15:10:16;;;;;;;15.02;12.45;;;23.00;99.90;;;;;;4913977;29;20036;-75
2021/09/12 15:12:43;;;;;;;14.60;13.00;;;23.10;99.90;;;;;;4913794;29;20028;-69
2021/09/12 15:15:09;;;;;;;15.68;12.43;;;23.10;99.90;;;;;;4927768;29;20078;-69
2021/09/12 15:17:34;;;;;;;16.23;13.77;;;23.10;99.90;;;;;;4944337;28;20023;-70
2021/09/12 15:20:00;;;;;;;15.48;13.10;;;23.00;99.90;;;;;;4928160;29;20356;-76
2021/09/12 15:23:11;;;;;;;22.77;16.60;;;22.90;99.90;;;;;;4917373;29;20027;-86
2021/09/12 15:29:24;;;;;;;18.42;13.73;;;22.70;99.90;;;;;;4846539;29;20065;-85
2021/09/12 15:31:50;;;;;;;16.33;13.95;;;22.70;99.90;;;;;;4887695;29;20047;-73
2021/09/12 15:34:23;;;;;;;17.23;14.48;;;22.70;99.90;;;;;;4911071;29;20059;-76
2021/09/12 15:36:51;;;;;;;17.42;14.63;;;22.80;99.90;;;;;;4896476;29;20052;-82
2021/09/12 15:39:18;;;;;;;24.98;20.40;;;22.80;99.90;;;;;;4913815;29;20028;-82
2021/09/12 15:41:44;;;;;;;22.38;15.38;;;22.90;99.90;;;;;;4897083;29;20079;-80
2021/09/12 15:44:09;;;;;;;17.90;15.30;;;23.00;99.90;;;;;;4895080;29;20044;-84
2021/09/12 15:46:35;;;;;;;17.48;13.02;;;23.00;99.90;;;;;;4895770;29;20028;-82
2021/09/12 15:49:00;;;;;;;16.30;12.98;;;23.00;99.90;;;;;;4905446;29;20044;-82
2021/09/12 15:51:30;;;;;;;15.95;12.85;;;22.90;99.90;;;;;;4897901;29;20038;-77
2021/09/12 15:53:56;;;;;;;18.38;14.30;;;22.80;99.90;;;;;;4895971;29;20032;-79
2021/09/12 15:56:26;;;;;;;25.38;20.17;;;22.50;99.90;;;;;;4897933;29;20028;-80
2021/09/12 15:58:51;;;;;;;14.27;12.43;;;22.40;99.90;;;;;;4887118;29;20477;-79
2021/09/12 16:01:17;;;;;;;19.45;13.02;;;22.10;99.90;;;;;;4887337;29;20068;-78
2021/09/12 16:03:43;;;;;;;10.25;8.30;;;21.80;99.90;;;;;;4885915;29;20056;-78
2021/09/12 16:06:09;;;;;;;6.53;5.68;;;21.60;99.90;;;;;;4877760;29;20055;-79
2021/09/12 16:08:34;;;;;;;5.38;4.35;;;21.50;99.90;;;;;;4896500;29;20024;-78
2021/09/12 16:11:00;;;;;;;5.22;4.10;;;21.30;99.90;;;;;;4890393;29;20037;-78
2021/09/12 16:13:26;;;;;;;6.80;4.50;;;21.10;99.90;;;;;;4916319;29;20555;-76
2021/09/12 16:15:51;;;;;;;6.53;5.38;;;21.00;99.90;;;;;;4932197;29;20365;-86
2021/09/12 16:18:17;;;;;;;6.10;5.20;;;21.00;99.90;;;;;;4932312;29;20032;-75
2021/09/12 16:20:43;;;;;;;5.82;4.32;;;20.90;99.90;;;;;;4934271;29;20043;-79
2021/09/12 16:23:08;;;;;;;5.43;4.70;;;21.00;99.90;;;;;;4930789;29;20027;-79
2021/09/12 16:25:34;;;;;;;4.72;3.95;;;21.00;99.90;;;;;;4918781;29;20082;-76
2021/09/12 16:28:00;;;;;;;5.53;4.40;;;21.00;99.90;;;;;;4933130;29;20510;-79
2021/09/12 16:30:25;;;;;;;8.07;4.28;;;21.00;99.90;;;;;;4923216;29;20055;-78
2021/09/12 16:32:51;;;;;;;8.02;4.53;;;20.90;99.90;;;;;;4922972;29;20032;-79
2021/09/12 16:35:17;;;;;;;5.15;3.47;;;20.90;99.90;;;;;;4933229;29;20042;-77
2021/09/12 16:37:42;;;;;;;6.13;3.35;;;20.80;99.90;;;;;;4932675;29;20376;-78
2021/09/12 16:40:09;;;;;;;4.05;3.35;;;20.70;99.90;;;;;;4916555;29;20102;-80
2021/09/12 16:42:36;;;;;;;5.32;3.50;;;20.70;99.90;;;;;;4918902;29;20116;-79
2021/09/12 16:45:05;;;;;;;5.20;3.40;;;20.70;99.90;;;;;;4923218;29;20032;-78
2021/09/12 16:47:34;;;;;;;3.30;3.00;;;20.80;99.90;;;;;;4913642;29;20028;-78
2021/09/12 16:50:01;;;;;;;3.53;2.80;;;20.80;99.90;;;;;;4929604;29;20020;-77
2021/09/12 16:52:26;;;;;;;4.53;3.33;;;20.80;99.90;;;;;;4918139;29;20036;-78
2021/09/12 16:54:52;;;;;;;5.30;3.55;;;20.70;99.90;;;;;;4918152;29;20039;-79
2021/09/12 16:57:17;;;;;;;5.35;3.42;;;20.60;99.90;;;;;;4924793;29;20024;-85
2021/09/12 16:59:43;;;;;;;4.88;3.35;;;20.40;99.90;;;;;;4929253;29;20034;-85
2021/09/12 17:02:08;;;;;;;5.25;4.20;;;20.30;99.90;;;;;;4923297;29;20543;-84
2021/09/12 17:04:35;;;;;;;6.60;4.25;;;20.20;99.90;;;;;;4916356;29;20035;-77
2021/09/12 17:07:01;;;;;;;6.85;3.70;;;20.20;99.90;;;;;;4911864;29;20020;-77
2021/09/12 17:09:26;;;;;;;6.32;3.90;;;20.10;99.90;;;;;;4912322;29;20047;-72
2021/09/12 17:11:52;;;;;;;5.13;3.25;;;20.10;99.90;;;;;;4929873;29;20067;-82
2021/09/12 17:14:18;;;;;;;7.90;3.70;;;20.00;99.90;;;;;;4919308;29;20036;-84
2021/09/12 17:16:45;;;;;;;4.75;3.63;;;19.80;99.90;;;;;;4914205;29;20035;-86
2021/09/12 17:19:13;;;;;;;3.55;2.90;;;19.70;99.90;;;;;;4904046;29;20114;-83
2021/09/12 17:21:38;;;;;;;3.25;2.72;;;19.50;99.90;;;;;;4932306;29;20480;-84
2021/09/12 17:24:04;;;;;;;4.15;2.50;;;19.40;99.90;;;;;;4922593;29;20055;-83
2021/09/12 17:26:29;;;;;;;3.25;2.17;;;19.20;99.90;;;;;;4923952;29;20030;-86
2021/09/12 17:28:55;;;;;;;5.65;2.30;;;19.10;99.90;;;;;;4922223;29;20064;-86
2021/09/12 17:31:21;;;;;;;6.28;2.58;;;18.90;99.90;;;;;;4929101;29;20150;-87
2021/09/12 17:33:46;;;;;;;4.63;2.63;;;18.80;99.90;;;;;;4927961;29;20020;-86
2021/09/12 17:36:12;;;;;;;2.63;1.80;;;18.70;99.90;;;;;;4935670;29;20026;-80
2021/09/12 17:38:37;;;;;;;1.95;1.52;;;18.60;99.90;;;;;;4935798;29;20480;-78
2021/09/12 17:41:04;;;;;;;5.15;1.95;;;18.40;99.90;;;;;;4935732;29;20031;-80
2021/09/12 17:43:29;;;;;;;5.57;2.10;;;18.40;99.90;;;;;;4936878;29;20107;-75
2021/09/12 17:45:55;;;;;;;2.72;1.92;;;18.30;99.90;;;;;;4935918;29;20111;-75
2021/09/12 17:48:21;;;;;;;3.85;2.03;;;18.20;99.90;;;;;;4931957;29;20020;-77
2021/09/12 17:50:46;;;;;;;5.80;2.38;;;18.10;99.90;;;;;;4935491;29;20031;-75
2021/09/12 17:53:12;;;;;;;2.13;1.80;;;18.00;99.90;;;;;;4935545;29;20027;-74
2021/09/12 17:55:38;;;;;;;4.25;2.03;;;17.90;99.90;;;;;;4924051;29;20036;-76
2021/09/12 17:58:04;;;;;;;3.30;1.83;;;17.80;99.90;;;;;;4928022;29;20420;-80
2021/09/12 18:00:30;;;;;;;4.18;2.05;;;17.70;99.90;;;;;;4926229;29;20062;-82
2021/09/12 18:02:55;;;;;;;2.88;1.90;;;17.60;99.90;;;;;;4920577;29;20444;-78
2021/09/12 18:05:21;;;;;;;3.53;1.80;;;17.50;99.90;;;;;;4926078;29;20055;-82
2021/09/12 18:07:47;;;;;;;2.30;1.95;;;17.50;99.90;;;;;;4922172;29;20075;-84
2021/09/12 18:10:15;;;;;;;2.55;1.70;;;17.40;99.90;;;;;;4928325;29;20035;-88
2021/09/12 18:12:55;;;;;;;3.45;1.95;;;17.30;99.90;;;;;;4937377;29;20024;-83
2021/09/12 18:15:20;;;;;;;2.90;2.05;;;17.20;99.90;;;;;;4933050;29;20031;-80
2021/09/12 18:17:46;;;;;;;1.67;1.50;;;17.20;99.90;;;;;;4932434;29;20020;-79
2021/09/12 18:20:12;;;;;;;2.25;1.50;;;17.10;99.90;;;;;;4933253;29;20040;-79
2021/09/12 18:22:37;;;;;;;3.47;2.00;;;17.00;99.90;;;;;;4934082;29;20059;-79
2021/09/12 18:25:04;;;;;;;4.70;1.83;;;16.90;99.90;;;;;;4932332;29;20114;-80
2021/09/12 18:27:31;;;;;;;3.65;1.55;;;16.90;99.90;;;;;;4932921;29;20046;-78
2021/09/12 18:29:56;;;;;;;3.38;2.08;;;16.80;99.90;;;;;;4921144;29;20047;-78
2021/09/12 18:32:22;;;;;;;2.80;1.80;;;16.80;99.90;;;;;;4933134;29;20532;-78
2021/09/12 18:34:47;;;;;;;2.00;1.58;;;16.70;99.90;;;;;;4930371;29;20058;-80
2021/09/12 18:37:13;;;;;;;3.28;1.92;;;16.60;99.90;;;;;;4921828;29;20111;-82
2021/09/12 18:39:39;;;;;;;4.50;2.13;;;16.60;99.90;;;;;;4931413;29;20507;-82
2021/09/12 18:42:04;;;;;;;3.95;1.70;;;16.60;99.90;;;;;;4923021;29;20034;-83
2021/09/12 18:44:30;;;;;;;6.45;2.20;;;16.50;99.90;;;;;;4926817;29;20056;-80
2021/09/12 18:46:55;;;;;;;4.88;1.80;;;16.50;99.90;;;;;;4912477;29;20126;-77
2021/09/12 18:49:21;;;;;;;3.42;1.63;;;16.40;99.90;;;;;;4914335;29;20028;-80
2021/09/12 18:51:49;;;;;;;1.83;1.60;;;16.40;99.90;;;;;;4914339;29;20473;-80
2021/09/12 18:54:18;;;;;;;3.83;1.92;;;16.30;99.90;;;;;;4914730;29;20042;-77
2021/09/12 18:56:48;;;;;;;2.80;1.65;;;16.30;99.90;;;;;;4929961;29;20124;-81
2021/09/12 18:59:16;;;;;;;3.08;1.58;;;16.20;99.90;;;;;;4923905;29;20044;-81
2021/09/12 19:01:42;;;;;;;2.53;1.77;;;16.20;99.90;;;;;;4914205;29;20028;-80
2021/09/12 19:04:08;;;;;;;2.03;1.75;;;16.10;99.90;;;;;;4912759;29;20047;-80
2021/09/12 19:06:33;;;;;;;3.80;1.90;;;16.00;99.90;;;;;;4914677;29;20017;-80
2021/09/12 19:09:00;;;;;;;2.33;2.03;;;16.00;99.90;;;;;;4924236;29;20027;-79
2021/09/12 19:11:26;;;;;;;3.25;1.70;;;16.00;99.90;;;;;;4907892;29;20468;-79
2021/09/12 19:13:59;;;;;;;4.00;1.90;;;15.90;99.90;;;;;;4920456;29;20802;-79
2021/09/12 19:16:30;;;;;;;3.00;2.10;;;15.90;99.90;;;;;;4931011;29;20040;-80
2021/09/12 19:18:55;;;;;;;4.22;1.70;;;15.80;99.90;;;;;;4900069;29;20032;-76
2021/09/12 19:21:22;;;;;;;2.90;1.95;;;15.70;99.90;;;;;;4931405;29;20377;-80
2021/09/12 19:23:50;;;;;;;2.05;1.58;;;15.70;99.90;;;;;;4930807;29;20062;-79
2021/09/12 19:26:16;;;;;;;2.58;1.70;;;15.60;99.90;;;;;;4915438;29;20036;-80
2021/09/12 19:28:42;;;;;;;3.10;1.88;;;15.60;99.90;;;;;;4914637;29;20118;-74
2021/09/12 19:31:08;;;;;;;3.33;1.95;;;15.60;99.90;;;;;;4915308;29;20194;-78
2021/09/12 19:33:33;;;;;;;4.03;2.13;;;15.50;99.90;;;;;;4925246;29;20524;-79
2021/09/12 19:36:03;;;;;;;3.85;1.70;;;15.50;99.90;;;;;;4921560;29;20343;-78
2021/09/12 19:38:29;;;;;;;3.50;2.15;;;15.50;99.90;;;;;;4933497;29;20028;-78
2021/09/12 19:40:54;;;;;;;5.35;2.10;;;15.40;99.90;;;;;;4933840;29;20079;-79
2021/09/12 19:43:20;;;;;;;2.42;1.83;;;15.40;99.90;;;;;;4933812;29;20409;-77
2021/09/12 19:45:45;;;;;;;2.92;1.67;;;15.40;99.90;;;;;;4934037;29;20110;-78
2021/09/12 19:48:13;;;;;;;4.10;1.90;;;15.30;99.90;;;;;;4934058;29;20460;-78
2021/09/12 19:50:42;;;;;;;3.92;2.10;;;15.30;99.90;;;;;;4933912;29;20067;-78
2021/09/12 19:53:10;;;;;;;3.38;2.20;;;15.30;99.90;;;;;;4933669;29;20079;-78
2021/09/12 19:55:41;;;;;;;3.47;1.88;;;15.30;99.90;;;;;;4935440;29;20088;-78
2021/09/12 19:58:07;;;;;;;3.15;1.45;;;15.30;99.90;;;;;;4933222;29;20027;-80
2021/09/12 20:00:32;;;;;;;3.05;1.40;;;15.30;99.90;;;;;;4934045;29;20051;-80
2021/09/12 20:02:58;;;;;;;4.40;2.40;;;15.20;99.90;;;;;;4933798;29;20028;-80
2021/09/12 20:05:25;;;;;;;3.53;1.88;;;15.20;99.90;;;;;;4933356;29;20428;-81
2021/09/12 20:07:50;;;;;;;3.08;1.65;;;15.20;99.90;;;;;;4933580;29;20026;-79
2021/09/12 20:10:16;;;;;;;4.20;2.20;;;15.20;99.90;;;;;;4935210;29;20107;-80
2021/09/12 20:12:41;;;;;;;3.08;1.55;;;15.10;99.90;;;;;;4928986;29;20019;-79
2021/09/12 20:15:08;;;;;;;4.25;2.03;;;15.10;99.90;;;;;;4915345;29;20051;-80
2021/09/12 20:17:34;;;;;;;3.28;1.92;;;15.10;99.90;;;;;;4920368;29;20044;-80
2021/09/12 20:20:00;;;;;;;3.58;2.10;;;15.00;99.90;;;;;;4932659;29;20055;-79
2021/09/12 20:22:26;;;;;;;7.47;2.47;;;15.00;99.90;;;;;;4934075;29;20023;-78
2021/09/12 20:24:52;;;;;;;3.25;2.38;;;14.90;99.90;;;;;;4933289;29;20099;-78
2021/09/12 20:27:18;;;;;;;4.57;1.98;;;14.90;99.90;;;;;;4933253;29;20480;-78
2021/09/12 20:29:43;;;;;;;5.78;2.25;;;14.90;99.90;;;;;;4928084;29;20115;-79
2021/09/12 20:32:09;;;;;;;3.70;2.20;;;14.90;99.90;;;;;;4913924;29;20163;-79
2021/09/12 20:34:35;;;;;;;2.70;2.17;;;14.80;99.90;;;;;;4914921;29;20091;-79
2021/09/12 20:37:00;;;;;;;3.78;1.90;;;14.80;99.90;;;;;;4918480;29;20032;-78
2021/09/12 20:39:26;;;;;;;4.22;2.50;;;14.70;99.90;;;;;;4931441;29;20445;-80
2021/09/12 20:41:51;;;;;;;4.88;2.40;;;14.70;99.90;;;;;;4933924;29;20511;-79
2021/09/12 20:44:17;;;;;;;3.40;2.28;;;14.70;99.90;;;;;;4933311;29;20492;-80
2021/09/12 20:46:43;;;;;;;7.75;2.53;;;14.60;99.90;;;;;;4932808;29;20024;-81
2021/09/12 20:49:11;;;;;;;2.38;2.10;;;14.60;99.90;;;;;;4934179;29;20469;-79
2021/09/12 20:51:37;;;;;;;3.90;2.33;;;14.60;99.90;;;;;;4933623;29;20078;-80
2021/09/12 20:54:05;;;;;;;2.53;2.15;;;14.60;99.90;;;;;;4932168;29;20139;-79
2021/09/12 20:56:32;;;;;;;3.47;2.55;;;14.50;99.90;;;;;;4933227;29;20035;-79
2021/09/12 20:58:57;;;;;;;4.05;2.55;;;14.50;99.90;;;;;;4933901;29;20028;-80
2021/09/12 21:01:23;;;;;;;4.65;2.80;;;14.40;99.90;;;;;;4933820;29;20024;-80
2021/09/12 21:03:49;;;;;;;3.38;2.50;;;14.40;99.90;;;;;;4932665;29;20020;-81
2021/09/12 21:06:16;;;;;;;4.55;2.80;;;14.40;99.90;;;;;;4933145;29;20023;-81
2021/09/12 21:08:41;;;;;;;3.67;2.95;;;14.30;99.90;;;;;;4930165;29;20028;-81
2021/09/12 21:11:07;;;;;;;3.47;3.10;;;14.30;99.90;;;;;;4929640;29;20432;-81
2021/09/12 21:13:32;;;;;;;4.40;2.63;;;14.20;99.90;;;;;;4934626;29;20380;-81
2021/09/12 21:15:58;;;;;;;5.28;3.03;;;14.20;99.90;;;;;;4931870;29;20381;-82
2021/09/12 21:18:24;;;;;;;3.95;2.88;;;14.20;99.90;;;;;;4932829;29;20508;-81
2021/09/12 21:20:51;;;;;;;5.65;3.60;;;14.20;99.90;;;;;;4932827;29;20388;-81
2021/09/12 21:24:01;;;;;;;4.85;3.17;;;14.10;99.90;;;;;;4932079;29;20400;-80
2021/09/12 21:26:29;;;;;;;4.90;3.28;;;14.10;99.90;;;;;;4932856;29;20051;-81
2021/09/12 21:28:57;;;;;;;4.28;2.90;;;14.10;99.90;;;;;;4931644;29;20036;-81
2021/09/12 21:31:44;;;;;;;8.05;3.60;;;14.00;99.90;;;;;;4932389;29;20102;-81
2021/09/12 21:34:11;;;;;;;4.30;3.22;;;14.00;99.90;;;;;;4932563;29;20040;-82
2021/09/12 21:36:37;;;;;;;5.43;3.17;;;14.00;99.90;;;;;;4933836;29;20114;-82
2021/09/12 21:39:03;;;;;;;7.63;3.65;;;13.90;99.90;;;;;;4931993;29;20107;-81
2021/09/12 21:41:28;;;;;;;4.10;3.28;;;13.90;99.90;;;;;;4933005;29;20043;-81
2021/09/12 21:43:54;;;;;;;4.88;3.35;;;13.90;99.90;;;;;;4931284;29;20016;-82
2021/09/12 21:46:19;;;;;;;4.13;3.30;;;13.80;99.90;;;;;;4932543;29;20115;-83
2021/09/12 21:48:45;;;;;;;3.38;3.00;;;13.90;99.90;;;;;;4932526;29;20388;-82
2021/09/12 21:51:11;;;;;;;4.97;3.22;;;13.80;99.90;;;;;;4933245;29;20115;-81
2021/09/12 21:53:36;;;;;;;4.75;3.60;;;13.80;99.90;;;;;;4932795;29;20031;-81
2021/09/12 21:56:02;;;;;;;7.95;3.13;;;13.80;99.90;;;;;;4932410;29;20042;-81
2021/09/12 21:58:28;;;;;;;6.78;3.13;;;13.80;99.90;;;;;;4916151;29;20127;-80
2021/09/12 22:00:53;;;;;;;4.05;3.00;;;13.80;99.90;;;;;;4932334;29;20107;-80
2021/09/12 22:03:19;;;;;;;6.43;3.80;;;13.80;99.90;;;;;;4932548;29;20020;-82
2021/09/12 22:05:45;;;;;;;5.10;3.40;;;13.80;99.90;;;;;;4931601;29;20019;-81
2021/09/12 22:08:10;;;;;;;3.65;3.30;;;13.80;99.90;;;;;;4932685;29;20446;-82
2021/09/12 22:10:36;;;;;;;4.55;3.60;;;13.70;99.90;;;;;;4931997;29;20471;-82
2021/09/12 22:13:01;;;;;;;5.97;3.78;;;13.70;99.90;;;;;;4916376;29;20036;-82
2021/09/12 22:15:27;;;;;;;7.45;3.47;;;13.70;99.90;;;;;;4931988;29;20496;-81
2021/09/12 22:17:53;;;;;;;5.47;4.05;;;13.70;99.90;;;;;;4935201;29;20102;-80
2021/09/12 22:20:18;;;;;;;5.43;2.95;;;13.60;99.90;;;;;;4936247;29;20491;-83
2021/09/12 22:22:44;;;;;;;4.38;3.55;;;13.60;99.90;;;;;;4935937;29;20079;-82
2021/09/12 22:25:10;;;;;;;4.93;3.40;;;13.60;99.90;;;;;;4935417;29;20024;-83
2021/09/12 22:27:37;;;;;;;3.75;3.45;;;13.60;99.90;;;;;;4936062;29;20026;-82
2021/09/12 22:30:04;;;;;;;4.65;3.30;;;13.60;99.90;;;;;;4935358;29;20059;-83
2021/09/12 22:32:30;;;;;;;3.85;3.20;;;13.60;99.90;;;;;;4935289;29;20119;-83
2021/09/12 22:34:55;;;;;;;3.90;3.50;;;13.60;99.90;;;;;;4935173;29;20130;-82
2021/09/12 22:37:21;;;;;;;4.68;2.97;;;13.60;99.90;;;;;;4936948;29;20019;-82
2021/09/12 22:39:47;;;;;;;3.28;2.97;;;13.60;99.90;;;;;;4934847;29;20052;-82
2021/09/12 22:42:12;;;;;;;3.83;3.25;;;13.60;99.90;;;;;;4935754;29;20079;-82
2021/09/12 22:44:38;;;;;;;4.72;3.92;;;13.50;99.90;;;;;;4935763;29;20028;-81
2021/09/12 22:47:04;;;;;;;4.25;3.35;;;13.50;99.90;;;;;;4934677;29;20051;-82
2021/09/12 22:49:30;;;;;;;4.28;3.83;;;13.50;99.90;;;;;;4936813;29;20024;-82
2021/09/12 22:51:58;;;;;;;3.42;3.10;;;13.40;99.90;;;;;;4936224;29;20094;-81
2021/09/12 22:54:24;;;;;;;5.75;3.28;;;13.40;99.90;;;;;;4935033;29;20054;-82
2021/09/12 22:56:49;;;;;;;4.15;3.58;;;13.40;99.90;;;;;;4934946;29;20067;-83
2021/09/12 22:59:16;;;;;;;4.13;3.83;;;13.40;99.90;;;;;;4935040;29;20030;-82
2021/09/12 23:01:43;;;;;;;6.25;3.95;;;13.40;99.90;;;;;;4934624;29;20036;-82
2021/09/12 23:04:09;;;;;;;5.82;3.92;;;13.40;99.90;;;;;;4935119;29;20046;-82
2021/09/12 23:06:34;;;;;;;6.28;3.75;;;13.30;99.90;;;;;;4935206;29;20031;-82
2021/09/12 23:09:00;;;;;;;4.63;3.95;;;13.30;99.90;;;;;;4934181;29;20083;-80